Time;durP1;ratioP1;P1;durP2;ratioP2;P2;SDS_P1;SDS_P2;PMS_P1;PMS_P2;Temp;Humidity;BMP_temperature;BMP_pressure;BME280_temperature;BME280_humidity;BME280_pressure;Samples;Min_cycle;Max_cycle;Signal;HPM_P1;HPM_P2
2021/05/14 00:00:02;;;;;;;;;8.75;8.75;;;;;;;;3724644;37;20738;-63
2021/05/14 00:02:28;;;;;;;;;9.50;9.50;;;;;;;;3724556;38;20747;-64
2021/05/14 00:04:53;;;;;;;;;8.50;8.00;;;;;;;;3724613;38;20789;-63
2021/05/14 00:07:19;;;;;;;;;7.00;6.75;;;;;;;;3724230;37;17722;-63
2021/05/14 00:09:45;;;;;;;;;6.75;6.75;;;;;;;;3724558;37;17749;-64
2021/05/14 00:12:11;;;;;;;;;8.00;8.00;;;;;;;;3724715;38;17750;-63
2021/05/14 00:14:36;;;;;;;;;10.00;10.00;;;;;;;;3724717;37;17712;-64
2021/05/14 00:17:03;;;;;;;;;8.00;8.00;;;;;;;;3724734;38;17712;-64
2021/05/14 00:19:30;;;;;;;;;8.00;8.00;;;;;;;;3724479;38;20666;-62
2021/05/14 00:21:55;;;;;;;;;6.00;6.00;;;;;;;;3724686;37;17739;-62
2021/05/14 00:24:21;;;;;;;;;8.50;8.25;;;;;;;;3724478;37;20763;-63
2021/05/14 00:26:48;;;;;;;;;8.25;7.25;;;;;;;;3724672;37;18028;-63
2021/05/14 00:29:13;;;;;;;;;7.25;7.25;;;;;;;;3724183;37;17658;-63
2021/05/14 00:31:40;;;;;;;;;6.00;6.00;;;;;;;;3724652;38;20651;-63
2021/05/14 00:34:06;;;;;;;;;6.50;6.50;;;;;;;;3724458;37;17704;-63
2021/05/14 00:36:32;;;;;;;;;11.00;9.00;;;;;;;;3724430;37;20671;-63
2021/05/14 00:38:57;;;;;;;;;10.00;9.50;;;;;;;;3724610;37;17685;-63
2021/05/14 00:41:25;;;;;;;;;7.50;7.50;;;;;;;;3724424;37;17716;-60
2021/05/14 00:43:51;;;;;;;;;7.25;7.25;;;;;;;;3724684;38;17708;-64
2021/05/14 00:46:18;;;;;;;;;8.00;8.00;;;;;;;;3724425;37;20679;-63
2021/05/14 00:48:44;;;;;;;;;7.00;7.00;;;;;;;;3724259;37;17690;-63
2021/05/14 00:51:09;;;;;;;;;7.50;7.50;;;;;;;;3725411;37;20666;-63
2021/05/14 00:53:35;;;;;;;;;8.00;8.00;;;;;;;;3724719;38;17946;-63
2021/05/14 00:56:03;;;;;;;;;8.25;8.25;;;;;;;;3724700;37;17683;-63
2021/05/14 00:58:30;;;;;;;;;8.25;8.25;;;;;;;;3724194;38;17681;-65
2021/05/14 01:00:56;;;;;;;;;6.75;6.75;;;;;;;;3725678;37;20642;-62
2021/05/14 01:03:23;;;;;;;;;5.00;5.00;;;;;;;;3726703;38;20664;-62
2021/05/14 01:05:49;;;;;;;;;7.75;7.75;;;;;;;;3725080;38;20640;-62
2021/05/14 01:08:15;;;;;;;;;9.75;8.00;;;;;;;;3724558;37;17659;-63
2021/05/14 01:10:41;;;;;;;;;7.00;7.00;;;;;;;;3724413;37;21646;-63
2021/05/14 01:13:08;;;;;;;;;8.00;8.00;;;;;;;;3724602;38;17671;-63
2021/05/14 01:15:34;;;;;;;;;7.25;7.25;;;;;;;;3724433;38;21893;-63
2021/05/14 01:18:00;;;;;;;;;6.75;6.75;;;;;;;;3724426;38;21603;-63
2021/05/14 01:20:29;;;;;;;;;8.00;7.75;;;;;;;;3724711;37;18634;-64
2021/05/14 01:22:55;;;;;;;;;8.00;8.00;;;;;;;;3724521;38;18651;-64
2021/05/14 01:25:22;;;;;;;;;5.50;5.50;;;;;;;;3724271;38;21632;-62
2021/05/14 01:27:48;;;;;;;;;8.25;8.25;;;;;;;;3724089;37;21869;-62
2021/05/14 01:30:15;;;;;;;;;7.25;7.25;;;;;;;;3724496;38;21611;-64
2021/05/14 01:32:44;;;;;;;;;8.00;8.00;;;;;;;;3724108;37;18610;-62
2021/05/14 01:35:10;;;;;;;;;9.75;9.25;;;;;;;;3724360;38;21569;-63
2021/05/14 01:37:40;;;;;;;;;8.75;8.75;;;;;;;;3724414;38;21615;-62
2021/05/14 01:40:06;;;;;;;;;8.00;8.00;;;;;;;;3724492;37;18619;-63
2021/05/14 01:42:32;;;;;;;;;8.25;8.25;;;;;;;;3724336;37;21846;-61
2021/05/14 01:44:58;;;;;;;;;9.00;8.50;;;;;;;;3724419;38;21577;-64
2021/05/14 01:47:25;;;;;;;;;8.00;7.50;;;;;;;;3724593;37;18585;-63
2021/05/14 01:49:51;;;;;;;;;6.00;6.00;;;;;;;;3724068;38;18613;-62
2021/05/14 01:52:18;;;;;;;;;7.00;7.00;;;;;;;;3724422;37;21236;-65
2021/05/14 01:54:44;;;;;;;;;9.50;9.00;;;;;;;;3724411;37;21578;-64
2021/05/14 01:57:10;;;;;;;;;8.00;8.00;;;;;;;;3724212;38;21509;-64
2021/05/14 01:59:36;;;;;;;;;9.25;9.25;;;;;;;;3723919;38;18571;-63
2021/05/14 02:02:03;;;;;;;;;9.25;8.50;;;;;;;;3724435;38;18571;-64
2021/05/14 02:04:28;;;;;;;;;8.00;7.25;;;;;;;;3724650;37;18567;-63
2021/05/14 02:06:55;;;;;;;;;7.50;7.00;;;;;;;;3724535;38;21571;-62
2021/05/14 02:09:23;;;;;;;;;8.00;8.00;;;;;;;;3724107;37;18565;-62
2021/05/14 02:11:49;;;;;;;;;8.50;8.50;;;;;;;;3724462;37;21581;-64
2021/05/14 02:14:15;;;;;;;;;8.00;8.00;;;;;;;;3724500;38;18557;-63
2021/05/14 02:16:41;;;;;;;;;9.25;9.25;;;;;;;;3724510;38;18572;-64
2021/05/14 02:19:06;;;;;;;;;10.25;8.50;;;;;;;;3724373;38;18559;-62
2021/05/14 02:21:32;;;;;;;;;8.25;6.50;;;;;;;;3724496;37;18546;-62
2021/05/14 02:23:58;;;;;;;;;8.75;8.75;;;;;;;;3724404;37;18567;-62
2021/05/14 02:26:29;;;;;;;;;8.00;8.00;;;;;;;;3724352;38;18541;-63
2021/05/14 02:28:56;;;;;;;;;8.75;8.75;;;;;;;;3724147;37;18529;-62
2021/05/14 02:31:23;;;;;;;;;10.00;10.00;;;;;;;;3723521;38;21494;-63
2021/05/14 02:33:49;;;;;;;;;8.00;8.00;;;;;;;;3724513;38;21597;-64
2021/05/14 02:36:15;;;;;;;;;10.00;10.00;;;;;;;;3724372;38;21479;-63
2021/05/14 02:38:42;;;;;;;;;11.25;11.00;;;;;;;;3724595;37;18529;-63
2021/05/14 02:41:11;;;;;;;;;11.00;10.75;;;;;;;;3723878;37;21557;-64
2021/05/14 02:43:38;;;;;;;;;9.00;8.00;;;;;;;;3724148;37;21599;-63
2021/05/14 02:46:04;;;;;;;;;10.00;10.00;;;;;;;;3724632;38;21496;-63
2021/05/14 02:48:33;;;;;;;;;8.00;8.00;;;;;;;;3724692;38;21475;-63
2021/05/14 02:50:59;;;;;;;;;10.25;9.25;;;;;;;;3724633;37;21119;-61
2021/05/14 02:53:25;;;;;;;;;8.50;8.50;;;;;;;;3724542;38;21535;-61
2021/05/14 02:55:50;;;;;;;;;9.00;9.00;;;;;;;;3724676;38;18516;-65
2021/05/14 02:58:16;;;;;;;;;11.75;11.75;;;;;;;;3724567;38;18500;-62
2021/05/14 03:00:44;;;;;;;;;7.50;7.00;;;;;;;;3724777;38;18503;-64
2021/05/14 03:03:11;;;;;;;;;10.25;9.25;;;;;;;;3724566;38;18492;-65
2021/05/14 03:05:37;;;;;;;;;10.75;10.25;;;;;;;;3724654;38;21532;-65
2021/05/14 03:08:03;;;;;;;;;9.25;9.00;;;;;;;;3724565;37;21555;-61
2021/05/14 03:10:29;;;;;;;;;8.25;8.25;;;;;;;;3724559;37;18466;-65
2021/05/14 03:12:54;;;;;;;;;8.75;8.50;;;;;;;;3724467;38;21431;-64
2021/05/14 03:15:20;;;;;;;;;9.50;7.75;;;;;;;;3724469;37;18486;-63
2021/05/14 03:17:46;;;;;;;;;8.25;8.25;;;;;;;;3724577;38;18470;-63
2021/05/14 03:20:13;;;;;;;;;13.00;12.00;;;;;;;;3724731;38;18495;-62
2021/05/14 03:22:40;;;;;;;;;15.75;15.75;;;;;;;;3724373;38;18468;-66
2021/05/14 03:25:09;;;;;;;;;14.75;14.50;;;;;;;;3724570;37;21543;-62
2021/05/14 03:27:36;;;;;;;;;13.25;13.25;;;;;;;;3724757;38;21538;-63
2021/05/14 03:30:03;;;;;;;;;50.25;42.00;;;;;;;;3724252;37;21627;-64
2021/05/14 03:32:31;;;;;;;;;17.75;17.25;;;;;;;;3726075;38;21604;-64
2021/05/14 03:34:57;;;;;;;;;13.50;12.75;;;;;;;;3724595;38;21506;-64
2021/05/14 03:37:23;;;;;;;;;14.75;14.75;;;;;;;;3724793;38;18436;-64
2021/05/14 03:39:54;;;;;;;;;11.25;10.75;;;;;;;;3724687;38;21533;-63
2021/05/14 03:42:23;;;;;;;;;19.25;19.25;;;;;;;;3724837;38;18452;-64
2021/05/14 03:44:50;;;;;;;;;11.00;11.00;;;;;;;;3724587;37;21494;-63
2021/05/14 03:47:17;;;;;;;;;12.25;12.25;;;;;;;;3724383;38;21566;-64
2021/05/14 03:49:43;;;;;;;;;15.25;14.00;;;;;;;;3724654;37;21497;-64
2021/05/14 03:52:10;;;;;;;;;14.25;12.75;;;;;;;;3724643;38;21524;-64
2021/05/14 03:54:36;;;;;;;;;11.75;10.00;;;;;;;;3724818;37;18442;-65
2021/05/14 03:57:02;;;;;;;;;12.75;12.75;;;;;;;;3724415;38;21492;-63
2021/05/14 03:59:27;;;;;;;;;12.50;12.50;;;;;;;;3724641;37;21665;-63
2021/05/14 04:01:53;;;;;;;;;15.50;12.75;;;;;;;;3724924;37;18404;-64
2021/05/14 04:04:21;;;;;;;;;11.25;11.25;;;;;;;;3724711;38;18414;-65
2021/05/14 04:06:46;;;;;;;;;11.25;11.25;;;;;;;;3724789;37;21562;-63
2021/05/14 04:09:17;;;;;;;;;17.50;17.50;;;;;;;;3724832;38;21475;-64
2021/05/14 04:12:08;;;;;;;;;13.00;13.00;;;;;;;;3724402;37;18393;-65
2021/05/14 04:14:34;;;;;;;;;17.25;17.25;;;;;;;;3725394;38;21430;-63
2021/05/14 04:17:05;;;;;;;;;10.50;10.50;;;;;;;;3725242;37;21455;-64
2021/05/14 04:19:32;;;;;;;;;13.75;13.50;;;;;;;;3725179;37;21421;-64
2021/05/14 04:21:58;;;;;;;;;15.00;12.50;;;;;;;;3726025;37;21461;-63
2021/05/14 04:24:26;;;;;;;;;12.75;12.75;;;;;;;;3726426;38;21413;-62
2021/05/14 04:26:52;;;;;;;;;13.00;13.00;;;;;;;;3725425;37;21439;-64
2021/05/14 04:29:19;;;;;;;;;14.00;13.00;;;;;;;;3724577;38;21458;-63
2021/05/14 04:31:46;;;;;;;;;14.25;13.25;;;;;;;;3725770;37;21432;-65
2021/05/14 04:34:13;;;;;;;;;14.00;13.50;;;;;;;;3726708;37;21476;-63
2021/05/14 04:36:39;;;;;;;;;15.25;14.25;;;;;;;;3726079;38;21462;-63
2021/05/14 04:39:07;;;;;;;;;13.25;12.25;;;;;;;;3726022;37;21538;-61
2021/05/14 04:41:38;;;;;;;;;17.75;16.25;;;;;;;;3726522;37;18366;-63
2021/05/14 04:44:04;;;;;;;;;17.75;16.25;;;;;;;;3725162;37;21464;-61
2021/05/14 04:46:30;;;;;;;;;15.50;14.50;;;;;;;;3724115;37;21435;-63
2021/05/14 04:48:56;;;;;;;;;16.75;15.25;;;;;;;;3723975;38;18349;-61
2021/05/14 04:51:22;;;;;;;;;14.50;13.00;;;;;;;;3724486;38;18342;-63
2021/05/14 04:53:48;;;;;;;;;9.50;9.50;;;;;;;;3724419;37;21456;-62
2021/05/14 04:56:15;;;;;;;;;17.50;16.50;;;;;;;;3724545;37;21502;-63
2021/05/14 04:58:44;;;;;;;;;13.75;13.75;;;;;;;;3724423;37;21415;-63
2021/05/14 05:01:13;;;;;;;;;12.75;12.75;;;;;;;;3724359;37;21445;-62
2021/05/14 05:03:43;;;;;;;;;13.50;13.50;;;;;;;;3724294;37;21443;-64
2021/05/14 05:06:09;;;;;;;;;11.25;11.25;;;;;;;;3724350;37;21433;-64
2021/05/14 05:08:35;;;;;;;;;15.50;13.00;;;;;;;;3724727;38;21379;-63
2021/05/14 05:11:00;;;;;;;;;17.50;17.00;;;;;;;;3723992;37;18344;-64
2021/05/14 05:13:27;;;;;;;;;12.25;12.25;;;;;;;;3724372;37;18328;-64
2021/05/14 05:15:54;;;;;;;;;39.50;35.75;;;;;;;;3723808;37;18341;-63
2021/05/14 05:18:20;;;;;;;;;26.75;25.00;;;;;;;;3724621;37;21374;-63
2021/05/14 05:20:46;;;;;;;;;17.75;17.00;;;;;;;;3724642;38;21381;-62
2021/05/14 05:23:12;;;;;;;;;18.75;18.75;;;;;;;;3724242;37;18324;-62
2021/05/14 05:25:38;;;;;;;;;12.50;12.50;;;;;;;;3724693;37;21417;-63
2021/05/14 05:28:10;;;;;;;;;42.25;35.75;;;;;;;;3724660;37;18285;-64
2021/05/14 05:30:37;;;;;;;;;27.50;25.75;;;;;;;;3724757;38;18317;-62
2021/05/14 05:33:03;;;;;;;;;13.25;12.75;;;;;;;;3724565;37;21362;-63
2021/05/14 05:35:29;;;;;;;;;23.25;20.25;;;;;;;;3724634;37;21395;-63
2021/05/14 05:37:55;;;;;;;;;21.25;19.75;;;;;;;;3724667;38;21376;-64
2021/05/14 05:40:21;;;;;;;;;21.50;19.50;;;;;;;;3724721;38;18305;-62
2021/05/14 05:42:47;;;;;;;;;18.25;18.00;;;;;;;;3724828;38;18295;-62
2021/05/14 05:45:13;;;;;;;;;9.00;9.00;;;;;;;;3724982;37;21396;-63
2021/05/14 05:47:39;;;;;;;;;39.25;35.50;;;;;;;;3724714;38;18285;-63
2021/05/14 05:50:07;;;;;;;;;22.50;22.00;;;;;;;;3724583;38;21349;-63
2021/05/14 05:52:33;;;;;;;;;15.25;13.50;;;;;;;;3724264;37;21373;-61
2021/05/14 05:54:59;;;;;;;;;15.75;15.75;;;;;;;;3724654;38;21391;-64
2021/05/14 05:57:24;;;;;;;;;18.50;17.25;;;;;;;;3724497;37;21402;-63
2021/05/14 05:59:50;;;;;;;;;15.75;14.50;;;;;;;;3724686;38;18260;-62
2021/05/14 06:02:16;;;;;;;;;16.50;16.00;;;;;;;;3724656;37;18275;-63
2021/05/14 06:04:42;;;;;;;;;11.75;11.00;;;;;;;;3724860;37;18246;-63
2021/05/14 06:07:10;;;;;;;;;14.00;14.00;;;;;;;;3724891;37;18242;-63
2021/05/14 06:09:35;;;;;;;;;14.50;14.00;;;;;;;;3724601;37;21384;-61
2021/05/14 06:12:01;;;;;;;;;15.50;14.75;;;;;;;;3726401;38;21322;-61
2021/05/14 06:14:27;;;;;;;;;13.00;12.00;;;;;;;;3725033;37;18261;-63
2021/05/14 06:16:53;;;;;;;;;13.25;11.50;;;;;;;;3724596;38;21297;-63
2021/05/14 06:19:27;;;;;;;;;23.25;23.00;;;;;;;;3724655;38;18241;-62
2021/05/14 06:21:54;;;;;;;;;15.75;15.25;;;;;;;;3724644;38;18216;-62
2021/05/14 06:24:21;;;;;;;;;16.00;15.25;;;;;;;;3724818;37;21352;-64
2021/05/14 06:26:47;;;;;;;;;16.75;16.75;;;;;;;;3724309;37;21318;-62
2021/05/14 06:29:15;;;;;;;;;12.50;12.50;;;;;;;;3724571;38;21328;-61
2021/05/14 06:31:41;;;;;;;;;13.75;13.75;;;;;;;;3723563;37;21297;-66
2021/05/14 06:34:08;;;;;;;;;15.00;15.00;;;;;;;;3724084;37;21316;-64
2021/05/14 06:36:35;;;;;;;;;12.50;12.50;;;;;;;;3723928;38;21318;-67
2021/05/14 06:39:03;;;;;;;;;19.25;19.25;;;;;;;;3724720;38;21297;-64
2021/05/14 06:41:29;;;;;;;;;20.50;20.50;;;;;;;;3724264;38;21310;-65
2021/05/14 06:43:57;;;;;;;;;20.25;20.25;;;;;;;;3724293;37;21266;-64
2021/05/14 06:46:22;;;;;;;;;20.50;19.75;;;;;;;;3724283;38;18209;-65
2021/05/14 06:48:49;;;;;;;;;21.25;20.50;;;;;;;;3724326;38;21276;-64
2021/05/14 06:51:15;;;;;;;;;17.50;17.50;;;;;;;;3724648;37;18198;-64
2021/05/14 06:53:40;;;;;;;;;20.50;20.00;;;;;;;;3724456;38;21238;-66
2021/05/14 06:56:06;;;;;;;;;21.25;21.25;;;;;;;;3724360;37;18200;-66
2021/05/14 06:58:38;;;;;;;;;19.50;18.00;;;;;;;;3725108;37;18179;-65
2021/05/14 07:01:05;;;;;;;;;16.25;16.25;;;;;;;;3724318;37;21270;-67
2021/05/14 07:03:30;;;;;;;;;19.50;18.75;;;;;;;;3724454;38;18411;-62
2021/05/14 07:05:56;;;;;;;;;28.75;28.00;;;;;;;;3724370;37;21223;-64
2021/05/14 07:08:23;;;;;;;;;23.00;23.00;;;;;;;;3724312;38;18151;-63
2021/05/14 07:10:49;;;;;;;;;23.00;23.00;;;;;;;;3724115;38;18317;-63
2021/05/14 07:13:15;;;;;;;;;26.25;24.50;;;;;;;;3724997;38;21235;-63
2021/05/14 07:15:41;;;;;;;;;29.00;28.50;;;;;;;;3725285;37;21216;-65
2021/05/14 07:18:06;;;;;;;;;18.00;18.00;;;;;;;;3727740;38;18169;-65
2021/05/14 07:20:41;;;;;;;;;25.50;22.25;;;;;;;;3728184;37;18165;-65
2021/05/14 07:23:07;;;;;;;;;27.25;25.25;;;;;;;;3728478;37;18141;-65
2021/05/14 07:25:33;;;;;;;;;22.75;22.75;;;;;;;;3726949;38;21204;-65
2021/05/14 07:27:59;;;;;;;;;32.50;30.50;;;;;;;;3727893;38;18145;-62
2021/05/14 07:30:28;;;;;;;;;25.50;24.00;;;;;;;;3728592;37;18135;-64
2021/05/14 07:32:53;;;;;;;;;29.00;28.75;;;;;;;;3725426;38;21207;-64
2021/05/14 07:35:20;;;;;;;;;22.25;22.25;;;;;;;;3725054;38;21193;-63
2021/05/14 07:37:46;;;;;;;;;21.75;21.75;;;;;;;;3724910;38;18152;-62
2021/05/14 07:40:13;;;;;;;;;28.00;26.75;;;;;;;;3724725;37;21195;-64
2021/05/14 07:42:38;;;;;;;;;23.75;23.75;;;;;;;;3725121;38;18117;-62
2021/05/14 07:45:05;;;;;;;;;27.75;26.25;;;;;;;;3724552;38;21173;-62
2021/05/14 07:47:31;;;;;;;;;27.00;26.25;;;;;;;;3724774;37;21291;-64
2021/05/14 07:49:57;;;;;;;;;27.25;25.50;;;;;;;;3724543;38;21163;-63
2021/05/14 07:52:23;;;;;;;;;25.75;22.25;;;;;;;;3724696;38;21175;-64
2021/05/14 07:54:49;;;;;;;;;22.00;22.00;;;;;;;;3725056;38;18107;-64
2021/05/14 07:57:16;;;;;;;;;29.75;29.00;;;;;;;;3724857;37;18110;-64
2021/05/14 07:59:41;;;;;;;;;26.75;25.50;;;;;;;;3724156;37;21157;-64
2021/05/14 08:02:07;;;;;;;;;25.75;25.75;;;;;;;;3724507;38;21160;-64
2021/05/14 08:04:34;;;;;;;;;29.75;28.25;;;;;;;;3724819;38;18093;-64
2021/05/14 08:07:00;;;;;;;;;24.25;23.50;;;;;;;;3724884;37;18079;-65
2021/05/14 08:09:27;;;;;;;;;26.50;25.75;;;;;;;;3724675;38;21199;-65
2021/05/14 08:11:53;;;;;;;;;27.50;26.50;;;;;;;;3724657;38;18065;-62
2021/05/14 08:14:21;;;;;;;;;22.25;19.75;;;;;;;;3724033;38;21154;-64
2021/05/14 08:16:46;;;;;;;;;29.25;26.50;;;;;;;;3724643;38;21155;-64
2021/05/14 08:19:12;;;;;;;;;21.50;20.25;;;;;;;;3724779;37;21116;-64
2021/05/14 08:21:41;;;;;;;;;22.50;22.00;;;;;;;;3724551;38;18079;-63
2021/05/14 08:24:09;;;;;;;;;34.75;31.25;;;;;;;;3724950;38;18056;-64
2021/05/14 08:26:34;;;;;;;;;21.75;21.25;;;;;;;;3724304;38;21118;-64
2021/05/14 08:29:00;;;;;;;;;26.50;26.50;;;;;;;;3724758;37;21175;-63
2021/05/14 08:31:26;;;;;;;;;21.75;21.50;;;;;;;;3724872;37;18053;-64
2021/05/14 08:33:52;;;;;;;;;23.00;21.50;;;;;;;;3724528;38;18042;-63
2021/05/14 08:36:19;;;;;;;;;27.50;26.75;;;;;;;;3724976;38;18065;-62
2021/05/14 08:38:45;;;;;;;;;24.75;24.25;;;;;;;;3725046;38;18027;-63
2021/05/14 08:41:11;;;;;;;;;19.75;18.00;;;;;;;;3724901;38;21108;-63
2021/05/14 08:43:37;;;;;;;;;23.75;23.25;;;;;;;;3724873;38;21121;-63
2021/05/14 08:46:03;;;;;;;;;26.50;24.00;;;;;;;;3724856;37;21095;-65
2021/05/14 08:48:35;;;;;;;;;25.25;24.00;;;;;;;;3725019;37;18028;-64
2021/05/14 08:51:10;;;;;;;;;24.25;24.25;;;;;;;;3725585;38;18044;-63
2021/05/14 08:53:37;;;;;;;;;27.00;26.25;;;;;;;;3726073;37;21071;-63
2021/05/14 08:56:03;;;;;;;;;23.25;23.00;;;;;;;;3724847;37;21079;-64
2021/05/14 08:58:29;;;;;;;;;21.75;21.00;;;;;;;;3724876;38;20709;-65
2021/05/14 09:00:56;;;;;;;;;21.25;20.75;;;;;;;;3724639;37;20734;-65
2021/05/14 09:03:22;;;;;;;;;22.50;22.00;;;;;;;;3724270;38;18036;-63
2021/05/14 09:05:48;;;;;;;;;20.00;19.00;;;;;;;;3724608;38;21123;-64
2021/05/14 09:08:25;;;;;;;;;22.75;20.25;;;;;;;;3724581;37;18013;-65
2021/05/14 09:10:51;;;;;;;;;19.00;18.25;;;;;;;;3724086;38;21111;-63
2021/05/14 09:13:17;;;;;;;;;14.50;14.50;;;;;;;;3724442;37;21147;-63
2021/05/14 09:15:44;;;;;;;;;14.00;14.00;;;;;;;;3724762;37;18007;-63
2021/05/14 09:18:14;;;;;;;;;13.50;13.50;;;;;;;;3725072;37;18015;-63
2021/05/14 09:20:47;;;;;;;;;13.75;13.75;;;;;;;;3724534;37;21111;-62
2021/05/14 09:23:35;;;;;;;;;10.00;10.00;;;;;;;;3724555;38;21062;-64
2021/05/14 09:26:05;;;;;;;;;9.25;9.00;;;;;;;;3724827;37;21270;-64
2021/05/14 09:28:41;;;;;;;;;12.00;12.00;;;;;;;;3725174;37;20974;-62
2021/05/14 09:31:30;;;;;;;;;11.00;11.00;;;;;;;;3724898;37;21075;-62
2021/05/14 09:33:58;;;;;;;;;8.00;8.00;;;;;;;;3724814;38;21098;-63
2021/05/14 09:36:25;;;;;;;;;9.25;9.25;;;;;;;;3725026;38;20993;-64
2021/05/14 09:38:55;;;;;;;;;11.25;10.50;;;;;;;;3724918;37;21000;-63
2021/05/14 09:41:29;;;;;;;;;12.00;11.00;;;;;;;;3724325;37;21066;-63
2021/05/14 09:44:16;;;;;;;;;9.25;8.75;;;;;;;;3725246;38;21097;-64
2021/05/14 09:46:45;;;;;;;;;10.50;9.00;;;;;;;;3724725;37;21154;-65
2021/05/14 09:49:13;;;;;;;;;10.00;10.00;;;;;;;;3724562;37;21049;-65
2021/05/14 09:51:59;;;;;;;;;8.75;8.00;;;;;;;;3725129;38;21138;-64
2021/05/14 09:54:29;;;;;;;;;7.50;7.25;;;;;;;;3725016;37;21134;-66
2021/05/14 09:57:32;;;;;;;;;10.50;10.00;;;;;;;;3725050;38;21117;-65
2021/05/14 10:00:05;;;;;;;;;9.00;8.25;;;;;;;;3725132;38;21182;-64
2021/05/14 10:02:35;;;;;;;;;9.00;9.00;;;;;;;;3724260;37;21122;-64
2021/05/14 10:05:04;;;;;;;;;11.25;10.25;;;;;;;;3725010;37;20952;-64
2021/05/14 10:07:37;;;;;;;;;10.25;10.25;;;;;;;;3724607;37;21161;-62
2021/05/14 10:10:06;;;;;;;;;9.00;9.00;;;;;;;;3724531;37;21163;-65
2021/05/14 10:12:32;;;;;;;;;11.75;10.25;;;;;;;;3724576;37;20880;-64
2021/05/14 10:15:02;;;;;;;;;9.50;9.50;;;;;;;;3724600;37;21020;-64
2021/05/14 10:17:28;;;;;;;;;8.00;8.00;;;;;;;;3724038;37;20883;-65
2021/05/14 10:19:54;;;;;;;;;8.00;8.00;;;;;;;;3724337;38;20917;-64
2021/05/14 10:22:25;;;;;;;;;16.00;15.00;;;;;;;;3724401;38;20824;-64
2021/05/14 10:24:52;;;;;;;;;7.00;6.00;;;;;;;;3724183;37;20998;-62
2021/05/14 10:27:29;;;;;;;;;5.00;5.00;;;;;;;;3724652;37;20863;-64
2021/05/14 10:29:56;;;;;;;;;8.75;8.25;;;;;;;;3724094;38;20876;-63
2021/05/14 10:33:06;;;;;;;;;8.00;8.00;;;;;;;;3724617;37;21061;-64
2021/05/14 10:35:34;;;;;;;;;13.50;12.75;;;;;;;;3724824;38;20915;-64
2021/05/14 10:38:06;;;;;;;;;8.50;7.00;;;;;;;;3724505;37;20964;-64
2021/05/14 10:40:41;;;;;;;;;20.00;19.50;;;;;;;;3724633;38;21027;-64
2021/05/14 10:43:11;;;;;;;;;3.00;3.00;;;;;;;;3724805;37;21014;-64
2021/05/14 10:45:41;;;;;;;;;3.00;3.00;;;;;;;;3724459;37;21046;-65
2021/05/14 10:48:19;;;;;;;;;806.00;694.33;;;;;;;;3724397;37;20531;-65
2021/05/14 10:50:49;;;;;;;;;42.00;36.75;;;;;;;;3724648;38;17869;-64
2021/05/14 10:53:27;;;;;;;;;22.50;22.50;;;;;;;;3724512;38;21027;-63
2021/05/14 10:55:54;;;;;;;;;8.00;7.75;;;;;;;;3724531;37;20922;-62
2021/05/14 10:58:43;;;;;;;;;6.00;5.00;;;;;;;;3724449;38;20818;-62
2021/05/14 11:01:44;;;;;;;;;7.75;7.00;;;;;;;;3724574;38;20932;-65
2021/05/14 11:04:32;;;;;;;;;3.25;3.25;;;;;;;;3724640;37;20856;-63
2021/05/14 11:06:59;;;;;;;;;3.50;3.00;;;;;;;;3724634;37;20816;-63
2021/05/14 11:09:25;;;;;;;;;2.75;2.75;;;;;;;;3724599;38;20836;-65
2021/05/14 11:11:59;;;;;;;;;3.75;3.75;;;;;;;;3724540;37;21029;-63
2021/05/14 11:14:26;;;;;;;;;5.00;5.00;;;;;;;;3724251;38;17839;-63
2021/05/14 11:16:56;;;;;;;;;4.50;4.50;;;;;;;;3724226;38;21005;-63
2021/05/14 11:19:26;;;;;;;;;5.00;5.00;;;;;;;;3724821;37;20820;-63
2021/05/14 11:22:07;;;;;;;;;2.00;2.00;;;;;;;;3724465;38;20997;-65
2021/05/14 11:24:34;;;;;;;;;2.25;2.25;;;;;;;;3724867;37;20843;-64
2021/05/14 11:27:06;;;;;;;;;3.25;3.25;;;;;;;;3724904;37;20820;-64
2021/05/14 11:29:36;;;;;;;;;2.00;2.00;;;;;;;;3724539;37;21008;-66
2021/05/14 11:32:22;;;;;;;;;10.00;10.00;;;;;;;;3725318;38;20994;-63
2021/05/14 11:35:05;;;;;;;;;6.00;6.00;;;;;;;;3724773;37;21076;-63
2021/05/14 11:37:33;;;;;;;;;4.00;4.00;;;;;;;;3725082;37;21000;-63
2021/05/14 11:40:04;;;;;;;;;4.00;4.00;;;;;;;;3724292;38;20835;-65
2021/05/14 11:42:31;;;;;;;;;2.00;2.00;;;;;;;;3724542;37;20823;-64
2021/05/14 11:45:02;;;;;;;;;1.75;1.75;;;;;;;;3724507;38;20981;-64
2021/05/14 11:47:28;;;;;;;;;3.00;2.25;;;;;;;;3724539;37;20960;-63
2021/05/14 11:50:01;;;;;;;;;3.50;3.50;;;;;;;;3724781;38;20797;-62
2021/05/14 11:52:42;;;;;;;;;2.25;2.25;;;;;;;;3724608;38;20959;-63
2021/05/14 11:55:12;;;;;;;;;2.00;2.00;;;;;;;;3724503;37;20957;-63
2021/05/14 11:57:39;;;;;;;;;1.00;1.00;;;;;;;;3724546;38;20956;-64
2021/05/14 12:00:09;;;;;;;;;1.00;1.00;;;;;;;;3724270;38;20845;-63
2021/05/14 12:02:39;;;;;;;;;6.00;5.00;;;;;;;;3724473;37;20960;-63
2021/05/14 12:05:06;;;;;;;;;3.00;2.75;;;;;;;;3724715;38;20824;-63
2021/05/14 12:07:32;;;;;;;;;2.25;2.25;;;;;;;;3724582;38;20942;-63
2021/05/14 12:09:58;;;;;;;;;2.00;2.00;;;;;;;;3724391;37;20947;-65
2021/05/14 12:12:30;;;;;;;;;2.75;2.00;;;;;;;;3724512;37;17754;-63
2021/05/14 12:15:30;;;;;;;;;3.00;3.00;;;;;;;;3724495;37;20918;-63
2021/05/14 12:17:58;;;;;;;;;8.00;7.00;;;;;;;;3724656;37;20785;-62
2021/05/14 12:20:25;;;;;;;;;7.50;7.50;;;;;;;;3724802;38;20929;-63
2021/05/14 12:22:53;;;;;;;;;3.00;3.00;;;;;;;;3724701;37;20918;-64
2021/05/14 12:25:20;;;;;;;;;4.25;4.25;;;;;;;;3724621;38;20918;-63
2021/05/14 12:27:47;;;;;;;;;3.50;3.50;;;;;;;;3724676;38;20770;-63
2021/05/14 12:30:16;;;;;;;;;9.50;8.00;;;;;;;;3724218;38;20896;-63
2021/05/14 12:32:43;;;;;;;;;4.00;4.00;;;;;;;;3724709;37;20948;-64
2021/05/14 12:35:09;;;;;;;;;10.50;10.00;;;;;;;;3724669;38;20921;-64
2021/05/14 12:37:35;;;;;;;;;6.00;6.00;;;;;;;;3724642;37;20883;-64
2021/05/14 12:40:01;;;;;;;;;4.75;4.00;;;;;;;;3724472;37;20909;-64
2021/05/14 12:42:34;;;;;;;;;5.25;5.25;;;;;;;;3724623;38;20744;-64
2021/05/14 12:45:00;;;;;;;;;4.00;3.25;;;;;;;;3724260;37;17735;-63
2021/05/14 12:47:29;;;;;;;;;8.00;8.00;;;;;;;;3724492;37;20875;-64
2021/05/14 12:50:00;;;;;;;;;2.50;2.50;;;;;;;;3724676;37;17752;-64
2021/05/14 12:52:35;;;;;;;;;3.00;3.00;;;;;;;;3724600;38;20859;-63
2021/05/14 12:55:20;;;;;;;;;5.25;5.25;;;;;;;;3724632;37;20866;-62
2021/05/14 12:58:04;;;;;;;;;2.75;2.75;;;;;;;;3724497;37;20878;-63
2021/05/14 13:00:39;;;;;;;;;12.00;11.00;;;;;;;;3724618;38;20904;-62
2021/05/14 13:03:07;;;;;;;;;5.00;5.00;;;;;;;;3724501;38;20948;-64
2021/05/14 13:05:40;;;;;;;;;5.00;3.25;;;;;;;;3724589;37;20870;-63
2021/05/14 13:08:06;;;;;;;;;12.25;12.25;;;;;;;;3724513;38;20841;-63
2021/05/14 13:10:34;;;;;;;;;8.25;8.25;;;;;;;;3724251;38;20801;-63
2021/05/14 13:13:01;;;;;;;;;4.25;4.00;;;;;;;;3724230;38;20670;-66
2021/05/14 13:15:27;;;;;;;;;258.75;238.50;;;;;;;;3724618;37;20863;-62
2021/05/14 13:17:55;;;;;;;;;379.50;341.50;;;;;;;;3724345;37;20840;-65
2021/05/14 13:20:22;;;;;;;;;3.25;3.25;;;;;;;;3724485;37;17673;-64
2021/05/14 13:22:48;;;;;;;;;3.00;2.25;;;;;;;;3725034;37;20843;-63
2021/05/14 13:25:14;;;;;;;;;2.50;2.50;;;;;;;;3724765;38;17686;-64
2021/05/14 13:27:40;;;;;;;;;3.00;2.00;;;;;;;;3724234;37;17666;-63
2021/05/14 13:30:07;;;;;;;;;2.00;2.00;;;;;;;;3724636;38;17682;-63
2021/05/14 13:32:34;;;;;;;;;3.50;3.25;;;;;;;;3724649;38;20827;-63
2021/05/14 13:35:02;;;;;;;;;18.75;18.75;;;;;;;;3724641;37;20824;-65
2021/05/14 13:37:29;;;;;;;;;1.00;1.00;;;;;;;;3724081;38;20790;-63
2021/05/14 13:39:54;;;;;;;;;6.25;6.25;;;;;;;;3724593;37;20828;-65
2021/05/14 13:42:22;;;;;;;;;3.25;3.25;;;;;;;;3724732;37;20746;-64
2021/05/14 13:44:48;;;;;;;;;4.75;4.00;;;;;;;;3724700;38;17653;-65
2021/05/14 13:47:14;;;;;;;;;2.00;2.00;;;;;;;;3724535;37;21792;-65
2021/05/14 13:49:39;;;;;;;;;5.00;5.00;;;;;;;;3724484;37;21590;-62
2021/05/14 13:52:06;;;;;;;;;2.25;2.25;;;;;;;;3724546;37;18622;-63
2021/05/14 13:54:32;;;;;;;;;2.25;2.25;;;;;;;;3724622;38;18627;-64
2021/05/14 13:56:59;;;;;;;;;2.25;2.25;;;;;;;;3724481;38;20810;-63
2021/05/14 13:59:25;;;;;;;;;2.00;2.00;;;;;;;;3724623;37;21790;-63
2021/05/14 14:01:51;;;;;;;;;2.50;2.50;;;;;;;;3724084;38;18638;-64
2021/05/14 14:04:19;;;;;;;;;2.00;2.00;;;;;;;;3724566;38;21868;-66
2021/05/14 14:06:45;;;;;;;;;2.00;2.00;;;;;;;;3724684;37;21833;-64
2021/05/14 14:09:11;;;;;;;;;0.75;0.75;;;;;;;;3724863;38;18616;-63
2021/05/14 14:11:38;;;;;;;;;1.00;1.00;;;;;;;;3724474;37;21803;-64
2021/05/14 14:14:04;;;;;;;;;0.00;0.00;;;;;;;;3727081;38;18633;-65
2021/05/14 14:16:31;;;;;;;;;0.00;0.00;;;;;;;;3725186;38;21808;-64
2021/05/14 14:18:58;;;;;;;;;1.00;0.00;;;;;;;;3724716;38;21813;-66
2021/05/14 14:21:24;;;;;;;;;2.00;1.00;;;;;;;;3724634;38;21803;-65
2021/05/14 14:23:50;;;;;;;;;0.75;0.75;;;;;;;;3724550;37;21495;-63
2021/05/14 14:26:16;;;;;;;;;1.00;1.00;;;;;;;;3724419;38;21776;-68
2021/05/14 14:28:42;;;;;;;;;1.25;0.50;;;;;;;;3724528;37;18616;-66
2021/05/14 14:31:07;;;;;;;;;0.00;0.00;;;;;;;;3724584;37;18578;-63
2021/05/14 14:33:33;;;;;;;;;0.00;0.00;;;;;;;;3724507;38;18610;-65